Аэропорт: Оренбург-Центральный. Оренбург

ICAO: UWOO

METAR:
2019-09-16 01:00:00
UWOO 160100Z 21003MPS 9999 BKN040CB 10/09 Q1012 R26/290055 NOSIG RMK QFE749/0998
METAR:
2019-09-15 22:57:00
TAF UWOO 152257Z 1600/1624 25005G13MPS 9999 BKN015 BKN020CB TX19/1611Z TN08/1601Z TEMPO 1600/1606 21003G08MPS 3100 -SHRA BR BKN011 BKN015CB TEMPO 1606/1624 22007G14MPS 4000 -SHRA BKN015CB